sensor_id;sensor_type;location;lat;lon;timestamp;temperature;humidity
18797;DHT22;9526;52.612;13.300;2023-07-13T00:00:23;17.60;99.90
18797;DHT22;9526;52.612;13.300;2023-07-13T00:02:47;17.60;99.90
18797;DHT22;9526;52.612;13.300;2023-07-13T00:05:11;17.60;99.90
18797;DHT22;9526;52.612;13.300;2023-07-13T00:07:34;17.60;99.90
18797;DHT22;9526;52.612;13.300;2023-07-13T00:09:58;17.60;99.90
18797;DHT22;9526;52.612;13.300;2023-07-13T00:12:25;17.60;99.90
18797;DHT22;9526;52.612;13.300;2023-07-13T00:14:52;17.60;99.90
18797;DHT22;9526;52.612;13.300;2023-07-13T00:17:16;17.60;99.90
18797;DHT22;9526;52.612;13.300;2023-07-13T00:19:40;17.50;99.90
18797;DHT22;9526;52.612;13.300;2023-07-13T00:22:04;17.50;99.90
18797;DHT22;9526;52.612;13.300;2023-07-13T00:24:28;17.50;99.90
18797;DHT22;9526;52.612;13.300;2023-07-13T00:26:52;17.50;99.90
18797;DHT22;9526;52.612;13.300;2023-07-13T00:29:15;17.50;99.90
18797;DHT22;9526;52.612;13.300;2023-07-13T00:31:40;17.40;99.90
18797;DHT22;9526;52.612;13.300;2023-07-13T00:34:05;17.40;99.90
18797;DHT22;9526;52.612;13.300;2023-07-13T00:36:30;17.40;99.90
18797;DHT22;9526;52.612;13.300;2023-07-13T00:38:54;17.30;99.90
18797;DHT22;9526;52.612;13.300;2023-07-13T00:41:19;17.30;99.90
18797;DHT22;9526;52.612;13.300;2023-07-13T00:43:43;17.20;99.90
18797;DHT22;9526;52.612;13.300;2023-07-13T00:46:24;17.20;99.90
18797;DHT22;9526;52.612;13.300;2023-07-13T00:48:51;17.00;99.90
18797;DHT22;9526;52.612;13.300;2023-07-13T00:51:20;17.00;99.90
18797;DHT22;9526;52.612;13.300;2023-07-13T00:53:47;17.00;99.90
18797;DHT22;9526;52.612;13.300;2023-07-13T00:56:11;17.00;99.90
18797;DHT22;9526;52.612;13.300;2023-07-13T00:58:36;16.90;99.90
18797;DHT22;9526;52.612;13.300;2023-07-13T01:00:59;16.90;99.90
18797;DHT22;9526;52.612;13.300;2023-07-13T01:03:23;16.90;99.90
18797;DHT22;9526;52.612;13.300;2023-07-13T01:05:50;16.90;99.90
18797;DHT22;9526;52.612;13.300;2023-07-13T01:08:16;16.80;99.90
18797;DHT22;9526;52.612;13.300;2023-07-13T01:10:39;16.70;99.90
18797;DHT22;9526;52.612;13.300;2023-07-13T01:13:03;16.70;99.90
18797;DHT22;9526;52.612;13.300;2023-07-13T01:15:39;16.70;99.90
18797;DHT22;9526;52.612;13.300;2023-07-13T01:18:07;16.70;99.90
18797;DHT22;9526;52.612;13.300;2023-07-13T01:20:33;16.70;99.90
18797;DHT22;9526;52.612;13.300;2023-07-13T01:23:00;16.60;99.90
18797;DHT22;9526;52.612;13.300;2023-07-13T01:25:24;16.60;99.90
18797;DHT22;9526;52.612;13.300;2023-07-13T01:27:48;16.60;99.90
18797;DHT22;9526;52.612;13.300;2023-07-13T01:30:12;16.60;99.90
18797;DHT22;9526;52.612;13.300;2023-07-13T01:32:36;16.50;99.90
18797;DHT22;9526;52.612;13.300;2023-07-13T01:35:01;16.50;99.90
18797;DHT22;9526;52.612;13.300;2023-07-13T01:37:26;16.40;99.90
18797;DHT22;9526;52.612;13.300;2023-07-13T01:39:51;16.40;99.90
18797;DHT22;9526;52.612;13.300;2023-07-13T01:42:15;16.40;99.90
18797;DHT22;9526;52.612;13.300;2023-07-13T01:44:38;16.40;99.90
18797;DHT22;9526;52.612;13.300;2023-07-13T01:47:03;16.40;99.90
18797;DHT22;9526;52.612;13.300;2023-07-13T01:49:27;16.40;99.90
18797;DHT22;9526;52.612;13.300;2023-07-13T01:51:51;16.30;99.90
18797;DHT22;9526;52.612;13.300;2023-07-13T01:54:14;16.30;99.90
18797;DHT22;9526;52.612;13.300;2023-07-13T01:56:39;16.30;99.90
18797;DHT22;9526;52.612;13.300;2023-07-13T01:59:03;16.30;99.90
18797;DHT22;9526;52.612;13.300;2023-07-13T02:01:27;16.20;99.90
18797;DHT22;9526;52.612;13.300;2023-07-13T02:03:51;16.30;99.90
18797;DHT22;9526;52.612;13.300;2023-07-13T02:06:15;16.20;99.90
18797;DHT22;9526;52.612;13.300;2023-07-13T02:08:40;16.20;99.90
18797;DHT22;9526;52.612;13.300;2023-07-13T02:11:04;16.20;99.90
18797;DHT22;9526;52.612;13.300;2023-07-13T02:13:29;16.10;99.90
18797;DHT22;9526;52.612;13.300;2023-07-13T02:15:53;16.10;99.90
18797;DHT22;9526;52.612;13.300;2023-07-13T02:18:17;16.10;99.90
18797;DHT22;9526;52.612;13.300;2023-07-13T02:20:41;16.00;99.90
18797;DHT22;9526;52.612;13.300;2023-07-13T02:23:04;16.00;99.90
18797;DHT22;9526;52.612;13.300;2023-07-13T02:25:31;16.00;99.90
18797;DHT22;9526;52.612;13.300;2023-07-13T02:27:54;15.90;99.90
18797;DHT22;9526;52.612;13.300;2023-07-13T02:30:19;16.00;99.90
18797;DHT22;9526;52.612;13.300;2023-07-13T02:32:48;16.00;99.90
18797;DHT22;9526;52.612;13.300;2023-07-13T02:35:12;15.90;99.90
18797;DHT22;9526;52.612;13.300;2023-07-13T02:37:36;15.90;99.90
18797;DHT22;9526;52.612;13.300;2023-07-13T02:40:00;15.90;99.90
18797;DHT22;9526;52.612;13.300;2023-07-13T02:42:25;15.90;99.90
18797;DHT22;9526;52.612;13.300;2023-07-13T02:44:49;15.90;99.90
18797;DHT22;9526;52.612;13.300;2023-07-13T02:47:14;15.90;99.90
18797;DHT22;9526;52.612;13.300;2023-07-13T02:49:38;15.80;99.90
18797;DHT22;9526;52.612;13.300;2023-07-13T02:52:03;15.80;99.90
18797;DHT22;9526;52.612;13.300;2023-07-13T02:54:27;15.80;99.90
18797;DHT22;9526;52.612;13.300;2023-07-13T02:56:51;15.80;99.90
18797;DHT22;9526;52.612;13.300;2023-07-13T02:59:15;15.70;99.90
18797;DHT22;9526;52.612;13.300;2023-07-13T03:01:38;15.70;99.90
18797;DHT22;9526;52.612;13.300;2023-07-13T03:04:04;15.70;99.90
18797;DHT22;9526;52.612;13.300;2023-07-13T03:06:31;15.70;99.90
18797;DHT22;9526;52.612;13.300;2023-07-13T03:08:55;15.60;99.90
18797;DHT22;9526;52.612;13.300;2023-07-13T03:11:20;15.60;99.90
18797;DHT22;9526;52.612;13.300;2023-07-13T03:14:01;15.60;99.90
18797;DHT22;9526;52.612;13.300;2023-07-13T03:16:28;15.60;99.90
18797;DHT22;9526;52.612;13.300;2023-07-13T03:18:53;15.60;99.90
18797;DHT22;9526;52.612;13.300;2023-07-13T03:21:19;15.60;99.90
18797;DHT22;9526;52.612;13.300;2023-07-13T03:23:42;15.60;99.90
18797;DHT22;9526;52.612;13.300;2023-07-13T03:26:09;15.60;99.90
18797;DHT22;9526;52.612;13.300;2023-07-13T03:28:36;15.60;99.90
18797;DHT22;9526;52.612;13.300;2023-07-13T03:31:02;15.60;99.90
18797;DHT22;9526;52.612;13.300;2023-07-13T03:33:28;15.60;99.90
18797;DHT22;9526;52.612;13.300;2023-07-13T03:35:52;15.60;99.90
18797;DHT22;9526;52.612;13.300;2023-07-13T03:38:16;15.60;99.90
18797;DHT22;9526;52.612;13.300;2023-07-13T03:40:40;15.50;99.90
18797;DHT22;9526;52.612;13.300;2023-07-13T03:43:06;15.60;99.90
18797;DHT22;9526;52.612;13.300;2023-07-13T03:45:30;15.60;99.90
18797;DHT22;9526;52.612;13.300;2023-07-13T03:47:53;15.60;99.90
18797;DHT22;9526;52.612;13.300;2023-07-13T03:50:18;15.60;99.90
18797;DHT22;9526;52.612;13.300;2023-07-13T03:52:42;15.60;99.90
18797;DHT22;9526;52.612;13.300;2023-07-13T03:55:10;15.60;99.90
18797;DHT22;9526;52.612;13.300;2023-07-13T03:57:34;15.60;99.90
18797;DHT22;9526;52.612;13.300;2023-07-13T04:00:03;15.60;99.90
18797;DHT22;9526;52.612;13.300;2023-07-13T04:02:36;15.60;99.90
18797;DHT22;9526;52.612;13.300;2023-07-13T04:05:00;15.70;99.90
18797;DHT22;9526;52.612;13.300;2023-07-13T04:07:24;15.70;99.90
18797;DHT22;9526;52.612;13.300;2023-07-13T04:09:48;15.70;99.90
18797;DHT22;9526;52.612;13.300;2023-07-13T04:12:13;15.80;99.90
18797;DHT22;9526;52.612;13.300;2023-07-13T04:14:37;15.80;99.90
18797;DHT22;9526;52.612;13.300;2023-07-13T04:17:01;15.80;99.90
18797;DHT22;9526;52.612;13.300;2023-07-13T04:19:25;15.90;99.90
18797;DHT22;9526;52.612;13.300;2023-07-13T04:21:48;15.90;99.90
18797;DHT22;9526;52.612;13.300;2023-07-13T04:24:12;16.00;99.90
18797;DHT22;9526;52.612;13.300;2023-07-13T04:26:36;16.00;99.90
18797;DHT22;9526;52.612;13.300;2023-07-13T04:29:02;16.10;99.90
18797;DHT22;9526;52.612;13.300;2023-07-13T04:31:26;16.10;99.90
18797;DHT22;9526;52.612;13.300;2023-07-13T04:33:50;16.20;99.90
18797;DHT22;9526;52.612;13.300;2023-07-13T04:36:16;16.30;99.90
18797;DHT22;9526;52.612;13.300;2023-07-13T04:38:40;16.30;99.90
18797;DHT22;9526;52.612;13.300;2023-07-13T04:41:05;16.40;99.90
18797;DHT22;9526;52.612;13.300;2023-07-13T04:43:30;16.40;99.90
18797;DHT22;9526;52.612;13.300;2023-07-13T04:45:56;16.50;99.90
18797;DHT22;9526;52.612;13.300;2023-07-13T04:48:20;16.60;99.90
18797;DHT22;9526;52.612;13.300;2023-07-13T04:50:44;16.70;99.90
18797;DHT22;9526;52.612;13.300;2023-07-13T04:53:08;16.70;99.90
18797;DHT22;9526;52.612;13.300;2023-07-13T04:55:32;16.80;99.90
18797;DHT22;9526;52.612;13.300;2023-07-13T04:57:56;16.90;99.90
18797;DHT22;9526;52.612;13.300;2023-07-13T05:00:21;17.00;99.90
18797;DHT22;9526;52.612;13.300;2023-07-13T05:02:46;17.10;99.90
18797;DHT22;9526;52.612;13.300;2023-07-13T05:05:10;17.10;99.90
18797;DHT22;9526;52.612;13.300;2023-07-13T05:07:34;17.20;99.90
18797;DHT22;9526;52.612;13.300;2023-07-13T05:09:58;17.30;99.90
18797;DHT22;9526;52.612;13.300;2023-07-13T05:12:22;17.40;99.90
18797;DHT22;9526;52.612;13.300;2023-07-13T05:14:45;17.40;99.90
18797;DHT22;9526;52.612;13.300;2023-07-13T05:17:10;17.50;99.90
18797;DHT22;9526;52.612;13.300;2023-07-13T05:19:35;17.60;99.90
18797;DHT22;9526;52.612;13.300;2023-07-13T05:21:59;17.60;99.90
18797;DHT22;9526;52.612;13.300;2023-07-13T05:24:25;17.70;99.90
18797;DHT22;9526;52.612;13.300;2023-07-13T05:26:49;17.80;99.90
18797;DHT22;9526;52.612;13.300;2023-07-13T05:29:12;17.90;99.90
18797;DHT22;9526;52.612;13.300;2023-07-13T05:31:36;18.00;99.90
18797;DHT22;9526;52.612;13.300;2023-07-13T05:34:02;18.10;99.90
18797;DHT22;9526;52.612;13.300;2023-07-13T05:36:28;18.20;99.90
18797;DHT22;9526;52.612;13.300;2023-07-13T05:38:51;18.30;99.90
18797;DHT22;9526;52.612;13.300;2023-07-13T05:41:15;18.40;99.90
18797;DHT22;9526;52.612;13.300;2023-07-13T05:43:39;18.50;99.90
18797;DHT22;9526;52.612;13.300;2023-07-13T05:46:03;18.60;99.90
18797;DHT22;9526;52.612;13.300;2023-07-13T05:48:26;18.70;99.90
18797;DHT22;9526;52.612;13.300;2023-07-13T05:50:50;18.80;99.90
18797;DHT22;9526;52.612;13.300;2023-07-13T05:53:15;18.90;99.90
18797;DHT22;9526;52.612;13.300;2023-07-13T05:55:41;19.00;99.90
18797;DHT22;9526;52.612;13.300;2023-07-13T05:58:05;19.10;99.90
18797;DHT22;9526;52.612;13.300;2023-07-13T06:00:29;19.30;99.90
18797;DHT22;9526;52.612;13.300;2023-07-13T06:02:53;19.50;99.90
18797;DHT22;9526;52.612;13.300;2023-07-13T06:05:17;19.70;99.90
18797;DHT22;9526;52.612;13.300;2023-07-13T06:07:41;20.00;99.90
18797;DHT22;9526;52.612;13.300;2023-07-13T06:10:07;20.30;99.90
18797;DHT22;9526;52.612;13.300;2023-07-13T06:12:31;20.70;99.90
18797;DHT22;9526;52.612;13.300;2023-07-13T06:14:54;20.90;99.90
18797;DHT22;9526;52.612;13.300;2023-07-13T06:17:18;21.10;99.90
18797;DHT22;9526;52.612;13.300;2023-07-13T06:19:42;21.50;99.90
18797;DHT22;9526;52.612;13.300;2023-07-13T06:22:05;21.80;99.90
18797;DHT22;9526;52.612;13.300;2023-07-13T06:24:29;22.10;99.90
18797;DHT22;9526;52.612;13.300;2023-07-13T06:26:54;22.60;99.90
18797;DHT22;9526;52.612;13.300;2023-07-13T06:29:18;22.80;99.90
18797;DHT22;9526;52.612;13.300;2023-07-13T06:31:41;23.30;99.90
18797;DHT22;9526;52.612;13.300;2023-07-13T06:34:05;23.80;99.90
18797;DHT22;9526;52.612;13.300;2023-07-13T06:36:29;24.00;99.90
18797;DHT22;9526;52.612;13.300;2023-07-13T06:38:53;24.50;99.90
18797;DHT22;9526;52.612;13.300;2023-07-13T06:41:17;24.80;99.90
18797;DHT22;9526;52.612;13.300;2023-07-13T06:43:42;25.00;99.90
18797;DHT22;9526;52.612;13.300;2023-07-13T06:46:06;25.50;99.90
18797;DHT22;9526;52.612;13.300;2023-07-13T06:48:30;25.60;99.90
18797;DHT22;9526;52.612;13.300;2023-07-13T06:50:54;25.90;99.90
18797;DHT22;9526;52.612;13.300;2023-07-13T06:53:18;26.40;99.90
18797;DHT22;9526;52.612;13.300;2023-07-13T06:55:44;26.50;99.90
18797;DHT22;9526;52.612;13.300;2023-07-13T06:58:08;26.70;99.90
18797;DHT22;9526;52.612;13.300;2023-07-13T07:00:33;26.80;99.90
18797;DHT22;9526;52.612;13.300;2023-07-13T07:02:57;26.90;99.90
18797;DHT22;9526;52.612;13.300;2023-07-13T07:05:21;27.10;99.90
18797;DHT22;9526;52.612;13.300;2023-07-13T07:07:44;27.30;99.90
18797;DHT22;9526;52.612;13.300;2023-07-13T07:10:08;27.20;99.50
18797;DHT22;9526;52.612;13.300;2023-07-13T07:12:32;27.10;99.90
18797;DHT22;9526;52.612;13.300;2023-07-13T07:14:57;26.90;99.80
18797;DHT22;9526;52.612;13.300;2023-07-13T07:17:22;26.80;99.90
18797;DHT22;9526;52.612;13.300;2023-07-13T07:19:47;26.20;99.90
18797;DHT22;9526;52.612;13.300;2023-07-13T07:22:11;26.00;99.90
18797;DHT22;9526;52.612;13.300;2023-07-13T07:24:34;26.10;99.90
18797;DHT22;9526;52.612;13.300;2023-07-13T07:26:58;26.10;99.90
18797;DHT22;9526;52.612;13.300;2023-07-13T07:29:25;26.00;99.90
18797;DHT22;9526;52.612;13.300;2023-07-13T07:31:52;25.90;99.90
18797;DHT22;9526;52.612;13.300;2023-07-13T07:34:20;25.70;99.90
18797;DHT22;9526;52.612;13.300;2023-07-13T07:36:44;25.70;99.90
18797;DHT22;9526;52.612;13.300;2023-07-13T07:39:11;25.30;99.90
18797;DHT22;9526;52.612;13.300;2023-07-13T07:41:34;25.40;99.90
18797;DHT22;9526;52.612;13.300;2023-07-13T07:44:01;25.40;99.90
18797;DHT22;9526;52.612;13.300;2023-07-13T07:46:25;25.40;99.90
18797;DHT22;9526;52.612;13.300;2023-07-13T07:48:50;25.10;99.90
18797;DHT22;9526;52.612;13.300;2023-07-13T07:51:15;24.90;99.90
18797;DHT22;9526;52.612;13.300;2023-07-13T07:53:39;24.60;99.90
18797;DHT22;9526;52.612;13.300;2023-07-13T07:56:03;24.70;99.90
18797;DHT22;9526;52.612;13.300;2023-07-13T07:58:46;24.80;99.90
18797;DHT22;9526;52.612;13.300;2023-07-13T08:01:13;24.90;99.90
18797;DHT22;9526;52.612;13.300;2023-07-13T08:03:40;25.10;99.90
18797;DHT22;9526;52.612;13.300;2023-07-13T08:06:07;24.80;99.90
18797;DHT22;9526;52.612;13.300;2023-07-13T08:08:36;24.80;99.90
18797;DHT22;9526;52.612;13.300;2023-07-13T08:11:02;24.80;99.90
18797;DHT22;9526;52.612;13.300;2023-07-13T08:13:46;24.90;99.90
18797;DHT22;9526;52.612;13.300;2023-07-13T08:16:12;25.10;99.90
18797;DHT22;9526;52.612;13.300;2023-07-13T08:18:36;25.20;99.90
18797;DHT22;9526;52.612;13.300;2023-07-13T08:21:03;25.40;99.90
18797;DHT22;9526;52.612;13.300;2023-07-13T08:23:27;25.50;99.90
18797;DHT22;9526;52.612;13.300;2023-07-13T08:25:55;25.30;99.80
18797;DHT22;9526;52.612;13.300;2023-07-13T08:28:20;24.90;99.90
18797;DHT22;9526;52.612;13.300;2023-07-13T08:30:44;24.60;99.70
18797;DHT22;9526;52.612;13.300;2023-07-13T08:33:10;24.80;99.90
18797;DHT22;9526;52.612;13.300;2023-07-13T08:35:34;24.80;99.60
18797;DHT22;9526;52.612;13.300;2023-07-13T08:37:58;24.90;99.90
18797;DHT22;9526;52.612;13.300;2023-07-13T08:40:25;25.00;99.90
18797;DHT22;9526;52.612;13.300;2023-07-13T08:42:54;25.10;99.50
18797;DHT22;9526;52.612;13.300;2023-07-13T08:45:22;25.20;99.90
18797;DHT22;9526;52.612;13.300;2023-07-13T08:47:51;25.10;99.00
18797;DHT22;9526;52.612;13.300;2023-07-13T08:50:18;25.10;99.90
18797;DHT22;9526;52.612;13.300;2023-07-13T08:52:44;25.00;99.30
18797;DHT22;9526;52.612;13.300;2023-07-13T08:55:13;25.00;98.40
18797;DHT22;9526;52.612;13.300;2023-07-13T08:57:39;25.10;98.40
18797;DHT22;9526;52.612;13.300;2023-07-13T09:00:09;25.00;97.20
18797;DHT22;9526;52.612;13.300;2023-07-13T09:02:41;24.80;96.90
18797;DHT22;9526;52.612;13.300;2023-07-13T09:05:12;24.80;98.10
18797;DHT22;9526;52.612;13.300;2023-07-13T09:07:50;24.80;98.50
18797;DHT22;9526;52.612;13.300;2023-07-13T09:10:26;24.60;98.60
18797;DHT22;9526;52.612;13.300;2023-07-13T09:13:02;24.60;97.30
18797;DHT22;9526;52.612;13.300;2023-07-13T09:15:39;24.20;97.70
18797;DHT22;9526;52.612;13.300;2023-07-13T09:18:09;24.10;98.10
18797;DHT22;9526;52.612;13.300;2023-07-13T09:20:37;24.10;98.90
18797;DHT22;9526;52.612;13.300;2023-07-13T09:23:07;24.10;99.20
18797;DHT22;9526;52.612;13.300;2023-07-13T09:25:36;24.10;98.40
18797;DHT22;9526;52.612;13.300;2023-07-13T09:28:05;24.20;98.10
18797;DHT22;9526;52.612;13.300;2023-07-13T09:30:38;24.30;98.00
18797;DHT22;9526;52.612;13.300;2023-07-13T09:33:08;24.30;98.10
18797;DHT22;9526;52.612;13.300;2023-07-13T09:35:34;24.40;96.30
18797;DHT22;9526;52.612;13.300;2023-07-13T09:38:01;24.10;96.70
18797;DHT22;9526;52.612;13.300;2023-07-13T09:40:38;24.10;97.60
18797;DHT22;9526;52.612;13.300;2023-07-13T09:43:10;24.30;97.90
18797;DHT22;9526;52.612;13.300;2023-07-13T09:45:38;24.50;98.70
18797;DHT22;9526;52.612;13.300;2023-07-13T09:48:07;24.40;98.00
18797;DHT22;9526;52.612;13.300;2023-07-13T09:50:35;24.30;97.50
18797;DHT22;9526;52.612;13.300;2023-07-13T09:53:01;24.30;97.10
18797;DHT22;9526;52.612;13.300;2023-07-13T09:55:27;24.10;97.50
18797;DHT22;9526;52.612;13.300;2023-07-13T09:57:53;24.10;97.60
18797;DHT22;9526;52.612;13.300;2023-07-13T10:00:22;24.10;97.90
18797;DHT22;9526;52.612;13.300;2023-07-13T10:02:59;24.30;98.90
18797;DHT22;9526;52.612;13.300;2023-07-13T10:05:26;24.40;98.10
18797;DHT22;9526;52.612;13.300;2023-07-13T10:07:49;24.60;98.20
18797;DHT22;9526;52.612;13.300;2023-07-13T10:10:15;24.60;97.50
18797;DHT22;9526;52.612;13.300;2023-07-13T10:12:40;24.60;98.30
18797;DHT22;9526;52.612;13.300;2023-07-13T10:15:12;24.70;98.80
18797;DHT22;9526;52.612;13.300;2023-07-13T10:17:47;24.70;99.10
18797;DHT22;9526;52.612;13.300;2023-07-13T10:20:12;24.60;98.50
18797;DHT22;9526;52.612;13.300;2023-07-13T10:22:42;24.60;97.70
18797;DHT22;9526;52.612;13.300;2023-07-13T10:25:15;24.70;98.40
18797;DHT22;9526;52.612;13.300;2023-07-13T10:27:41;24.60;97.10
18797;DHT22;9526;52.612;13.300;2023-07-13T10:30:11;24.70;98.20
18797;DHT22;9526;52.612;13.300;2023-07-13T10:32:38;24.80;96.80
18797;DHT22;9526;52.612;13.300;2023-07-13T10:35:04;24.80;97.10
18797;DHT22;9526;52.612;13.300;2023-07-13T10:37:37;24.70;97.20
18797;DHT22;9526;52.612;13.300;2023-07-13T10:40:06;24.60;96.40
18797;DHT22;9526;52.612;13.300;2023-07-13T10:42:39;24.40;96.70
18797;DHT22;9526;52.612;13.300;2023-07-13T10:45:13;24.60;97.50
18797;DHT22;9526;52.612;13.300;2023-07-13T10:47:38;24.90;96.40
18797;DHT22;9526;52.612;13.300;2023-07-13T10:50:04;25.20;97.20
18797;DHT22;9526;52.612;13.300;2023-07-13T10:52:45;25.50;98.50
18797;DHT22;9526;52.612;13.300;2023-07-13T10:55:34;25.70;95.20
18797;DHT22;9526;52.612;13.300;2023-07-13T10:58:11;25.90;94.70
18797;DHT22;9526;52.612;13.300;2023-07-13T11:00:44;25.90;94.40
18797;DHT22;9526;52.612;13.300;2023-07-13T11:03:14;25.70;94.60
18797;DHT22;9526;52.612;13.300;2023-07-13T11:05:41;26.10;93.70
18797;DHT22;9526;52.612;13.300;2023-07-13T11:08:16;26.40;96.70
18797;DHT22;9526;52.612;13.300;2023-07-13T11:10:51;26.90;96.00
18797;DHT22;9526;52.612;13.300;2023-07-13T11:13:56;27.30;94.60
18797;DHT22;9526;52.612;13.300;2023-07-13T11:16:38;27.40;93.90
18797;DHT22;9526;52.612;13.300;2023-07-13T11:22:41;28.00;92.30
18797;DHT22;9526;52.612;13.300;2023-07-13T11:25:25;27.70;91.70
18797;DHT22;9526;52.612;13.300;2023-07-13T11:27:52;28.20;92.40
18797;DHT22;9526;52.612;13.300;2023-07-13T11:30:35;28.40;90.30
18797;DHT22;9526;52.612;13.300;2023-07-13T11:33:04;28.20;90.90
18797;DHT22;9526;52.612;13.300;2023-07-13T11:35:37;28.30;90.30
18797;DHT22;9526;52.612;13.300;2023-07-13T11:38:15;28.50;91.40
18797;DHT22;9526;52.612;13.300;2023-07-13T11:40:40;28.40;89.90
18797;DHT22;9526;52.612;13.300;2023-07-13T11:43:06;28.30;90.20
18797;DHT22;9526;52.612;13.300;2023-07-13T11:45:31;28.30;87.40
18797;DHT22;9526;52.612;13.300;2023-07-13T11:48:19;28.20;88.20
18797;DHT22;9526;52.612;13.300;2023-07-13T11:50:50;28.20;90.60
18797;DHT22;9526;52.612;13.300;2023-07-13T11:53:17;28.40;91.90
18797;DHT22;9526;52.612;13.300;2023-07-13T11:55:40;28.50;87.80
18797;DHT22;9526;52.612;13.300;2023-07-13T11:58:04;28.60;91.10
18797;DHT22;9526;52.612;13.300;2023-07-13T12:00:30;28.60;91.70
18797;DHT22;9526;52.612;13.300;2023-07-13T12:02:58;28.60;91.00
18797;DHT22;9526;52.612;13.300;2023-07-13T12:05:24;28.50;91.50
18797;DHT22;9526;52.612;13.300;2023-07-13T12:07:49;29.00;91.10
18797;DHT22;9526;52.612;13.300;2023-07-13T12:10:20;28.90;92.40
18797;DHT22;9526;52.612;13.300;2023-07-13T12:12:47;29.10;92.10
18797;DHT22;9526;52.612;13.300;2023-07-13T12:15:12;28.70;86.60
18797;DHT22;9526;52.612;13.300;2023-07-13T12:17:36;28.90;88.20
18797;DHT22;9526;52.612;13.300;2023-07-13T12:19:59;28.90;89.70
18797;DHT22;9526;52.612;13.300;2023-07-13T12:22:28;29.30;91.00
18797;DHT22;9526;52.612;13.300;2023-07-13T12:24:53;29.40;85.30
18797;DHT22;9526;52.612;13.300;2023-07-13T12:27:22;28.90;83.10
18797;DHT22;9526;52.612;13.300;2023-07-13T12:29:50;28.50;85.40
18797;DHT22;9526;52.612;13.300;2023-07-13T12:32:17;29.10;88.50
18797;DHT22;9526;52.612;13.300;2023-07-13T12:34:52;29.30;84.20
18797;DHT22;9526;52.612;13.300;2023-07-13T12:37:18;29.60;86.30
18797;DHT22;9526;52.612;13.300;2023-07-13T12:39:45;30.10;90.50
18797;DHT22;9526;52.612;13.300;2023-07-13T12:42:18;30.30;90.40
18797;DHT22;9526;52.612;13.300;2023-07-13T12:44:46;30.40;84.10
18797;DHT22;9526;52.612;13.300;2023-07-13T12:47:13;30.60;90.20
18797;DHT22;9526;52.612;13.300;2023-07-13T12:49:41;30.80;89.50
18797;DHT22;9526;52.612;13.300;2023-07-13T12:52:14;30.80;83.50
18797;DHT22;9526;52.612;13.300;2023-07-13T12:54:40;30.90;84.10
18797;DHT22;9526;52.612;13.300;2023-07-13T12:57:17;31.10;86.20
18797;DHT22;9526;52.612;13.300;2023-07-13T12:59:42;31.10;81.30
18797;DHT22;9526;52.612;13.300;2023-07-13T13:02:22;31.20;81.70
18797;DHT22;9526;52.612;13.300;2023-07-13T13:04:51;30.70;74.20
18797;DHT22;9526;52.612;13.300;2023-07-13T13:07:17;31.10;84.50
18797;DHT22;9526;52.612;13.300;2023-07-13T13:09:42;30.50;74.70
18797;DHT22;9526;52.612;13.300;2023-07-13T13:12:07;29.60;76.20
18797;DHT22;9526;52.612;13.300;2023-07-13T13:14:36;29.40;79.80
18797;DHT22;9526;52.612;13.300;2023-07-13T13:17:01;29.80;84.10
18797;DHT22;9526;52.612;13.300;2023-07-13T13:19:27;29.80;82.00
18797;DHT22;9526;52.612;13.300;2023-07-13T13:21:54;30.20;83.60
18797;DHT22;9526;52.612;13.300;2023-07-13T13:24:23;30.30;81.00
18797;DHT22;9526;52.612;13.300;2023-07-13T13:26:48;30.20;79.70
18797;DHT22;9526;52.612;13.300;2023-07-13T13:29:15;30.20;80.10
18797;DHT22;9526;52.612;13.300;2023-07-13T13:31:39;30.30;79.00
18797;DHT22;9526;52.612;13.300;2023-07-13T13:34:08;30.30;81.80
18797;DHT22;9526;52.612;13.300;2023-07-13T13:36:33;30.20;83.10
18797;DHT22;9526;52.612;13.300;2023-07-13T13:38:56;29.90;79.10
18797;DHT22;9526;52.612;13.300;2023-07-13T13:41:20;30.20;83.60
18797;DHT22;9526;52.612;13.300;2023-07-13T13:43:44;30.30;80.20
18797;DHT22;9526;52.612;13.300;2023-07-13T13:46:14;29.50;81.40
18797;DHT22;9526;52.612;13.300;2023-07-13T13:48:40;29.10;79.00
18797;DHT22;9526;52.612;13.300;2023-07-13T13:51:13;29.20;83.00
18797;DHT22;9526;52.612;13.300;2023-07-13T13:53:39;28.90;82.80
18797;DHT22;9526;52.612;13.300;2023-07-13T13:56:04;29.00;83.70
18797;DHT22;9526;52.612;13.300;2023-07-13T13:58:28;28.80;85.00
18797;DHT22;9526;52.612;13.300;2023-07-13T14:00:52;28.60;81.20
18797;DHT22;9526;52.612;13.300;2023-07-13T14:03:18;28.70;81.80
18797;DHT22;9526;52.612;13.300;2023-07-13T14:05:42;28.50;80.10
18797;DHT22;9526;52.612;13.300;2023-07-13T14:08:11;28.60;80.70
18797;DHT22;9526;52.612;13.300;2023-07-13T14:10:36;28.60;86.10
18797;DHT22;9526;52.612;13.300;2023-07-13T14:13:00;28.10;83.40
18797;DHT22;9526;52.612;13.300;2023-07-13T14:15:25;28.20;86.80
18797;DHT22;9526;52.612;13.300;2023-07-13T14:17:50;28.80;86.60
18797;DHT22;9526;52.612;13.300;2023-07-13T14:20:14;29.30;85.90
18797;DHT22;9526;52.612;13.300;2023-07-13T14:22:38;29.50;81.10
18797;DHT22;9526;52.612;13.300;2023-07-13T14:25:03;29.40;78.30
18797;DHT22;9526;52.612;13.300;2023-07-13T14:27:28;29.00;84.30
18797;DHT22;9526;52.612;13.300;2023-07-13T14:29:51;28.60;80.90
18797;DHT22;9526;52.612;13.300;2023-07-13T14:32:16;28.50;83.90
18797;DHT22;9526;52.612;13.300;2023-07-13T14:34:40;28.60;80.60
18797;DHT22;9526;52.612;13.300;2023-07-13T14:37:04;28.30;81.00
18797;DHT22;9526;52.612;13.300;2023-07-13T14:39:30;28.30;77.70
18797;DHT22;9526;52.612;13.300;2023-07-13T14:41:56;28.40;77.20
18797;DHT22;9526;52.612;13.300;2023-07-13T14:44:23;28.40;79.40
18797;DHT22;9526;52.612;13.300;2023-07-13T14:46:49;28.40;76.60
18797;DHT22;9526;52.612;13.300;2023-07-13T14:49:17;28.10;78.50
18797;DHT22;9526;52.612;13.300;2023-07-13T14:51:45;28.20;80.70
18797;DHT22;9526;52.612;13.300;2023-07-13T14:54:09;28.30;78.20
18797;DHT22;9526;52.612;13.300;2023-07-13T14:56:33;28.10;77.40
18797;DHT22;9526;52.612;13.300;2023-07-13T14:58:58;28.20;80.30
18797;DHT22;9526;52.612;13.300;2023-07-13T15:01:23;28.10;80.10
18797;DHT22;9526;52.612;13.300;2023-07-13T15:03:49;28.10;79.40
18797;DHT22;9526;52.612;13.300;2023-07-13T15:06:14;28.10;79.50
18797;DHT22;9526;52.612;13.300;2023-07-13T15:08:38;28.00;78.50
18797;DHT22;9526;52.612;13.300;2023-07-13T15:11:02;28.00;81.80
18797;DHT22;9526;52.612;13.300;2023-07-13T15:13:28;28.20;81.00
18797;DHT22;9526;52.612;13.300;2023-07-13T15:15:53;28.10;77.30
18797;DHT22;9526;52.612;13.300;2023-07-13T15:18:19;28.20;81.20
18797;DHT22;9526;52.612;13.300;2023-07-13T15:20:45;28.20;78.80
18797;DHT22;9526;52.612;13.300;2023-07-13T15:23:10;28.20;79.10
18797;DHT22;9526;52.612;13.300;2023-07-13T15:25:35;28.00;78.00
18797;DHT22;9526;52.612;13.300;2023-07-13T15:27:59;27.70;77.70